sensor_id;sensor_type;location;lat;lon;timestamp;P1;durP1;ratioP1;P2;durP2;ratioP2
12623;SDS011;6377;42.836;23.998;2023-03-19T03:22:02;20.83;;;10.53;;
12623;SDS011;6377;42.836;23.998;2023-03-19T04:47:30;38.90;;;22.97;;
12623;SDS011;6377;42.836;23.998;2023-03-19T04:53:16;31.43;;;20.10;;
12623;SDS011;6377;42.836;23.998;2023-03-19T05:26:35;46.53;;;29.23;;
12623;SDS011;6377;42.836;23.998;2023-03-19T06:07:01;22.67;;;13.60;;
12623;SDS011;6377;42.836;23.998;2023-03-19T06:09:44;23.17;;;13.67;;
12623;SDS011;6377;42.836;23.998;2023-03-19T06:41:42;13.90;;;9.40;;
12623;SDS011;6377;42.836;23.998;2023-03-19T06:49:35;38.37;;;24.23;;
12623;SDS011;6377;42.836;23.998;2023-03-19T06:55:30;78.63;;;41.87;;
12623;SDS011;6377;42.836;23.998;2023-03-19T07:04:19;27.97;;;18.10;;
12623;SDS011;6377;42.836;23.998;2023-03-19T07:07:01;32.87;;;20.83;;
12623;SDS011;6377;42.836;23.998;2023-03-19T07:09:30;24.33;;;13.23;;
12623;SDS011;6377;42.836;23.998;2023-03-19T07:11:57;18.27;;;11.13;;
12623;SDS011;6377;42.836;23.998;2023-03-19T07:14:25;24.57;;;11.80;;
12623;SDS011;6377;42.836;23.998;2023-03-19T07:16:52;20.33;;;11.10;;
12623;SDS011;6377;42.836;23.998;2023-03-19T07:19:21;11.63;;;7.17;;
12623;SDS011;6377;42.836;23.998;2023-03-19T07:21:48;10.43;;;6.00;;
12623;SDS011;6377;42.836;23.998;2023-03-19T07:24:15;13.20;;;7.57;;
12623;SDS011;6377;42.836;23.998;2023-03-19T07:26:43;9.43;;;6.07;;
12623;SDS011;6377;42.836;23.998;2023-03-19T07:29:10;9.97;;;5.77;;
12623;SDS011;6377;42.836;23.998;2023-03-19T07:31:38;13.00;;;9.17;;
12623;SDS011;6377;42.836;23.998;2023-03-19T07:34:05;47.93;;;22.20;;
12623;SDS011;6377;42.836;23.998;2023-03-19T07:36:34;17.43;;;10.03;;
12623;SDS011;6377;42.836;23.998;2023-03-19T07:39:01;16.30;;;10.30;;
12623;SDS011;6377;42.836;23.998;2023-03-19T07:41:29;12.20;;;8.43;;
12623;SDS011;6377;42.836;23.998;2023-03-19T07:43:56;12.07;;;8.03;;
12623;SDS011;6377;42.836;23.998;2023-03-19T07:46:26;16.63;;;11.47;;
12623;SDS011;6377;42.836;23.998;2023-03-19T07:48:54;19.47;;;11.90;;
12623;SDS011;6377;42.836;23.998;2023-03-19T07:51:21;12.57;;;9.13;;
12623;SDS011;6377;42.836;23.998;2023-03-19T07:53:50;16.33;;;10.00;;
12623;SDS011;6377;42.836;23.998;2023-03-19T07:56:17;19.50;;;9.70;;
12623;SDS011;6377;42.836;23.998;2023-03-19T07:58:44;11.80;;;8.53;;
12623;SDS011;6377;42.836;23.998;2023-03-19T08:01:12;11.73;;;8.20;;
12623;SDS011;6377;42.836;23.998;2023-03-19T08:03:39;8.50;;;6.00;;
12623;SDS011;6377;42.836;23.998;2023-03-19T08:06:06;15.77;;;10.43;;
12623;SDS011;6377;42.836;23.998;2023-03-19T08:08:33;8.57;;;5.20;;
12623;SDS011;6377;42.836;23.998;2023-03-19T08:11:02;9.93;;;6.20;;
12623;SDS011;6377;42.836;23.998;2023-03-19T08:13:31;5.30;;;4.37;;
12623;SDS011;6377;42.836;23.998;2023-03-19T08:15:58;7.27;;;5.20;;
12623;SDS011;6377;42.836;23.998;2023-03-19T08:18:25;5.27;;;3.70;;
12623;SDS011;6377;42.836;23.998;2023-03-19T08:20:53;5.73;;;3.30;;
12623;SDS011;6377;42.836;23.998;2023-03-19T08:23:20;3.43;;;2.43;;
12623;SDS011;6377;42.836;23.998;2023-03-19T08:25:47;10.87;;;6.03;;
12623;SDS011;6377;42.836;23.998;2023-03-19T08:28:19;6.03;;;4.17;;
12623;SDS011;6377;42.836;23.998;2023-03-19T08:30:47;4.73;;;3.40;;
12623;SDS011;6377;42.836;23.998;2023-03-19T08:33:14;3.93;;;3.20;;
12623;SDS011;6377;42.836;23.998;2023-03-19T08:35:42;4.20;;;3.20;;
12623;SDS011;6377;42.836;23.998;2023-03-19T08:38:09;4.90;;;3.67;;
12623;SDS011;6377;42.836;23.998;2023-03-19T08:40:37;4.90;;;3.20;;
12623;SDS011;6377;42.836;23.998;2023-03-19T08:43:04;10.13;;;6.53;;
